Etusivu
METAR-TAF:

METAR-TAF

Lentoasemat :

Sandy Lake, Ontario, Kanada

Leveyspiiri: 53-03-51N, Pituuspiiri: 093-20-40W, korkeus merenpinnasta: 290 m

Tämänhetkinen sää

Tämä raportti tehtiin 56 minuuttia sitten, kello 22.00 UTC
Tuuli 7 kn lännestä, vaihdellen lounaan ja lännen/luoteen välillä
Lämpötila -16°C
Kosteus 50%
Ilmanpaine 1015 hPa
Näkyvyys: 14.5 km
Muutamia pilviä 12000 ft:n korkeudessa
Hajanaisia pilviä 14000 ft:n korkeudessa

METAR: CZSJ 162200Z AUTO 27007KT 220V290 9SM FEW120 SCT140 M16/M24 A2996 RMK SLP182

Aika: 16:56 (22:56 UTC)

Sääennuste

Tämä raportti tehtiin 5 tuntia ja 17 minuuttia sitten, kello 17.39 UTC
Ennuste voimassa 16. päivästä klo 18 UTC - 16. päivään klo 23 UTC
Tuuli 8 kn lännestä
Näkyvyys: 10 km
Muutamia pilviä 2000 ft:n korkeudessa

TAF: CZSJ 161739Z 1618/1623 26008KT P6SM FEW020 RMK FCST BASED ON AUTO OBS. NXT FCST WILL BE ISSUED AT 171045Z

Säähavainnot ja -ennusteet yli 4000 lentoasemalta (METAR- ja TAF-raportit).

Käytössä olevat sääasemat on merkitty karttaan keltaisilla ja punaisilla pisteillä.

Aseta hiiri pisteen päälle nähdäksesi sääaseman nimen.

Klikkaa sitten nähdäksesi säähavainnot ja -ennusteet.

Kartan vaihtaminen: klikkaa mustalla rastilla varustettuja vihreitä pisteitä, niin voit zoomata sisään; viivalla varustettua vihreää pistettä, niin voit zoomata ulos tai vihreitä nuolia, niin pääset viereisille kartoille.


METAR-TAF: